sensor_id;sensor_type;location;lat;lon;timestamp;P1;durP1;ratioP1;P2;durP2;ratioP2
6095;SDS011;25081;42.698;23.298;2023-04-24T00:00:09;8.50;;;5.73;;
6095;SDS011;25081;42.698;23.298;2023-04-24T00:02:20;8.60;;;5.97;;
6095;SDS011;25081;42.698;23.298;2023-04-24T00:04:31;8.77;;;6.00;;
6095;SDS011;25081;42.698;23.298;2023-04-24T00:06:41;10.40;;;6.20;;
6095;SDS011;25081;42.698;23.298;2023-04-24T00:08:52;6.30;;;5.40;;
6095;SDS011;25081;42.698;23.298;2023-04-24T00:11:03;11.00;;;5.77;;
6095;SDS011;25081;42.698;23.298;2023-04-24T00:13:13;8.47;;;5.63;;
6095;SDS011;25081;42.698;23.298;2023-04-24T00:15:24;13.00;;;6.37;;
6095;SDS011;25081;42.698;23.298;2023-04-24T00:17:34;7.70;;;6.17;;
6095;SDS011;25081;42.698;23.298;2023-04-24T00:19:45;9.13;;;6.10;;
6095;SDS011;25081;42.698;23.298;2023-04-24T00:21:55;8.13;;;6.27;;
6095;SDS011;25081;42.698;23.298;2023-04-24T00:24:06;11.97;;;6.13;;
6095;SDS011;25081;42.698;23.298;2023-04-24T00:26:17;8.73;;;5.70;;
6095;SDS011;25081;42.698;23.298;2023-04-24T00:28:28;8.43;;;6.00;;
6095;SDS011;25081;42.698;23.298;2023-04-24T00:30:38;10.27;;;6.60;;
6095;SDS011;25081;42.698;23.298;2023-04-24T00:32:49;6.43;;;5.73;;
6095;SDS011;25081;42.698;23.298;2023-04-24T00:35:00;11.00;;;6.60;;
6095;SDS011;25081;42.698;23.298;2023-04-24T00:37:11;10.10;;;6.30;;
6095;SDS011;25081;42.698;23.298;2023-04-24T00:39:21;11.00;;;7.47;;
6095;SDS011;25081;42.698;23.298;2023-04-24T00:41:32;12.10;;;8.50;;
6095;SDS011;25081;42.698;23.298;2023-04-24T00:43:42;14.10;;;7.20;;
6095;SDS011;25081;42.698;23.298;2023-04-24T00:45:53;12.03;;;5.77;;
6095;SDS011;25081;42.698;23.298;2023-04-24T00:48:04;7.00;;;5.33;;
6095;SDS011;25081;42.698;23.298;2023-04-24T00:50:14;5.97;;;4.37;;
6095;SDS011;25081;42.698;23.298;2023-04-24T00:52:25;8.07;;;4.77;;
6095;SDS011;25081;42.698;23.298;2023-04-24T00:54:35;6.50;;;4.83;;
6095;SDS011;25081;42.698;23.298;2023-04-24T00:56:46;7.80;;;4.90;;
6095;SDS011;25081;42.698;23.298;2023-04-24T00:58:56;6.10;;;4.10;;
6095;SDS011;25081;42.698;23.298;2023-04-24T01:01:07;6.27;;;4.50;;
6095;SDS011;25081;42.698;23.298;2023-04-24T01:03:17;6.77;;;3.70;;
6095;SDS011;25081;42.698;23.298;2023-04-24T01:05:28;6.00;;;5.17;;
6095;SDS011;25081;42.698;23.298;2023-04-24T01:07:40;9.33;;;6.07;;
6095;SDS011;25081;42.698;23.298;2023-04-24T01:09:51;18.90;;;10.40;;
6095;SDS011;25081;42.698;23.298;2023-04-24T01:12:02;9.50;;;6.43;;
6095;SDS011;25081;42.698;23.298;2023-04-24T01:14:13;11.23;;;7.30;;
6095;SDS011;25081;42.698;23.298;2023-04-24T01:16:23;7.27;;;4.70;;
6095;SDS011;25081;42.698;23.298;2023-04-24T01:18:34;6.87;;;4.90;;
6095;SDS011;25081;42.698;23.298;2023-04-24T01:20:44;7.20;;;4.97;;
6095;SDS011;25081;42.698;23.298;2023-04-24T01:22:55;8.20;;;4.90;;
6095;SDS011;25081;42.698;23.298;2023-04-24T01:25:06;6.13;;;4.67;;
6095;SDS011;25081;42.698;23.298;2023-04-24T01:27:17;10.70;;;5.47;;
6095;SDS011;25081;42.698;23.298;2023-04-24T01:29:28;6.00;;;4.93;;
6095;SDS011;25081;42.698;23.298;2023-04-24T01:31:39;5.93;;;5.20;;
6095;SDS011;25081;42.698;23.298;2023-04-24T01:33:49;5.40;;;4.10;;
6095;SDS011;25081;42.698;23.298;2023-04-24T01:36:00;7.83;;;4.90;;
6095;SDS011;25081;42.698;23.298;2023-04-24T01:38:10;6.15;;;4.53;;
6095;SDS011;25081;42.698;23.298;2023-04-24T01:40:21;6.92;;;4.65;;
6095;SDS011;25081;42.698;23.298;2023-04-24T01:42:32;7.70;;;5.07;;
6095;SDS011;25081;42.698;23.298;2023-04-24T01:44:42;6.42;;;4.78;;
6095;SDS011;25081;42.698;23.298;2023-04-24T01:46:53;6.25;;;5.50;;
6095;SDS011;25081;42.698;23.298;2023-04-24T01:49:04;9.28;;;5.33;;
6095;SDS011;25081;42.698;23.298;2023-04-24T01:51:15;8.95;;;5.50;;
6095;SDS011;25081;42.698;23.298;2023-04-24T01:53:26;9.68;;;5.85;;
6095;SDS011;25081;42.698;23.298;2023-04-24T01:55:36;12.10;;;6.40;;
6095;SDS011;25081;42.698;23.298;2023-04-24T01:57:47;7.20;;;5.25;;
6095;SDS011;25081;42.698;23.298;2023-04-24T01:59:57;6.55;;;5.05;;
6095;SDS011;25081;42.698;23.298;2023-04-24T02:02:08;6.95;;;5.42;;
6095;SDS011;25081;42.698;23.298;2023-04-24T02:04:18;7.55;;;5.65;;
6095;SDS011;25081;42.698;23.298;2023-04-24T02:06:29;6.80;;;5.50;;
6095;SDS011;25081;42.698;23.298;2023-04-24T02:08:40;7.23;;;5.70;;
6095;SDS011;25081;42.698;23.298;2023-04-24T02:10:50;6.47;;;5.30;;
6095;SDS011;25081;42.698;23.298;2023-04-24T02:13:01;7.47;;;5.97;;
6095;SDS011;25081;42.698;23.298;2023-04-24T02:15:12;6.77;;;5.53;;
6095;SDS011;25081;42.698;23.298;2023-04-24T02:17:22;6.33;;;4.90;;
6095;SDS011;25081;42.698;23.298;2023-04-24T02:19:33;6.60;;;5.50;;
6095;SDS011;25081;42.698;23.298;2023-04-24T02:21:44;10.23;;;5.73;;
6095;SDS011;25081;42.698;23.298;2023-04-24T02:23:54;6.60;;;5.53;;
6095;SDS011;25081;42.698;23.298;2023-04-24T02:26:06;6.93;;;6.20;;
6095;SDS011;25081;42.698;23.298;2023-04-24T02:28:16;11.00;;;6.90;;
6095;SDS011;25081;42.698;23.298;2023-04-24T02:30:27;9.67;;;5.60;;
6095;SDS011;25081;42.698;23.298;2023-04-24T02:32:38;12.73;;;6.77;;
6095;SDS011;25081;42.698;23.298;2023-04-24T02:34:48;7.90;;;6.50;;
6095;SDS011;25081;42.698;23.298;2023-04-24T02:36:59;8.87;;;5.97;;
6095;SDS011;25081;42.698;23.298;2023-04-24T02:39:09;11.13;;;5.53;;
6095;SDS011;25081;42.698;23.298;2023-04-24T02:41:20;6.67;;;5.93;;
6095;SDS011;25081;42.698;23.298;2023-04-24T02:43:31;7.40;;;6.07;;
6095;SDS011;25081;42.698;23.298;2023-04-24T02:45:41;10.93;;;5.60;;
6095;SDS011;25081;42.698;23.298;2023-04-24T02:47:52;9.30;;;5.80;;
6095;SDS011;25081;42.698;23.298;2023-04-24T02:50:03;8.03;;;6.20;;
6095;SDS011;25081;42.698;23.298;2023-04-24T02:52:14;8.63;;;6.03;;
6095;SDS011;25081;42.698;23.298;2023-04-24T02:54:25;7.00;;;5.60;;
6095;SDS011;25081;42.698;23.298;2023-04-24T02:56:36;15.38;;;6.75;;
6095;SDS011;25081;42.698;23.298;2023-04-24T02:58:46;8.40;;;5.70;;
6095;SDS011;25081;42.698;23.298;2023-04-24T03:00:57;7.70;;;6.33;;
6095;SDS011;25081;42.698;23.298;2023-04-24T03:03:07;8.70;;;5.78;;
6095;SDS011;25081;42.698;23.298;2023-04-24T03:05:18;8.10;;;6.67;;
6095;SDS011;25081;42.698;23.298;2023-04-24T03:07:29;9.73;;;6.35;;
6095;SDS011;25081;42.698;23.298;2023-04-24T03:09:40;12.80;;;6.63;;
6095;SDS011;25081;42.698;23.298;2023-04-24T03:11:50;11.07;;;7.70;;
6095;SDS011;25081;42.698;23.298;2023-04-24T03:14:01;14.03;;;7.40;;
6095;SDS011;25081;42.698;23.298;2023-04-24T03:16:11;7.60;;;6.50;;
6095;SDS011;25081;42.698;23.298;2023-04-24T03:18:22;9.17;;;7.60;;
6095;SDS011;25081;42.698;23.298;2023-04-24T03:20:32;8.75;;;7.78;;
6095;SDS011;25081;42.698;23.298;2023-04-24T03:22:43;10.40;;;7.40;;
6095;SDS011;25081;42.698;23.298;2023-04-24T03:24:53;41.90;;;27.27;;
6095;SDS011;25081;42.698;23.298;2023-04-24T03:27:04;26.33;;;17.98;;
6095;SDS011;25081;42.698;23.298;2023-04-24T03:29:14;14.40;;;9.00;;
6095;SDS011;25081;42.698;23.298;2023-04-24T03:31:25;22.20;;;15.80;;
6095;SDS011;25081;42.698;23.298;2023-04-24T03:33:36;12.23;;;9.35;;
6095;SDS011;25081;42.698;23.298;2023-04-24T03:35:47;16.07;;;8.83;;
6095;SDS011;25081;42.698;23.298;2023-04-24T03:37:57;13.98;;;8.73;;
6095;SDS011;25081;42.698;23.298;2023-04-24T03:40:09;12.63;;;8.10;;
6095;SDS011;25081;42.698;23.298;2023-04-24T03:42:20;14.03;;;8.77;;
6095;SDS011;25081;42.698;23.298;2023-04-24T03:44:30;11.12;;;8.10;;
6095;SDS011;25081;42.698;23.298;2023-04-24T03:46:41;16.07;;;9.43;;
6095;SDS011;25081;42.698;23.298;2023-04-24T03:48:52;16.93;;;8.30;;
6095;SDS011;25081;42.698;23.298;2023-04-24T03:51:02;16.00;;;8.70;;
6095;SDS011;25081;42.698;23.298;2023-04-24T03:53:13;11.33;;;9.38;;
6095;SDS011;25081;42.698;23.298;2023-04-24T03:55:24;10.78;;;9.55;;
6095;SDS011;25081;42.698;23.298;2023-04-24T03:57:34;16.93;;;9.83;;
6095;SDS011;25081;42.698;23.298;2023-04-24T03:59:45;15.28;;;9.53;;
6095;SDS011;25081;42.698;23.298;2023-04-24T04:01:55;13.80;;;9.65;;
6095;SDS011;25081;42.698;23.298;2023-04-24T04:04:06;18.03;;;9.03;;
6095;SDS011;25081;42.698;23.298;2023-04-24T04:06:16;14.05;;;9.43;;
6095;SDS011;25081;42.698;23.298;2023-04-24T04:08:27;14.43;;;9.20;;
6095;SDS011;25081;42.698;23.298;2023-04-24T04:10:37;14.83;;;9.93;;
6095;SDS011;25081;42.698;23.298;2023-04-24T04:12:48;16.27;;;11.13;;
6095;SDS011;25081;42.698;23.298;2023-04-24T04:14:58;13.10;;;9.50;;
6095;SDS011;25081;42.698;23.298;2023-04-24T04:17:09;29.53;;;10.47;;
6095;SDS011;25081;42.698;23.298;2023-04-24T04:19:20;13.13;;;9.13;;
6095;SDS011;25081;42.698;23.298;2023-04-24T04:21:30;11.87;;;9.50;;
6095;SDS011;25081;42.698;23.298;2023-04-24T04:23:41;14.43;;;10.35;;
6095;SDS011;25081;42.698;23.298;2023-04-24T04:25:51;16.27;;;9.43;;
6095;SDS011;25081;42.698;23.298;2023-04-24T04:28:01;12.43;;;9.90;;
6095;SDS011;25081;42.698;23.298;2023-04-24T04:30:12;12.27;;;9.10;;
6095;SDS011;25081;42.698;23.298;2023-04-24T04:32:23;12.83;;;9.27;;
6095;SDS011;25081;42.698;23.298;2023-04-24T04:34:34;19.13;;;9.40;;
6095;SDS011;25081;42.698;23.298;2023-04-24T04:36:44;14.47;;;8.90;;
6095;SDS011;25081;42.698;23.298;2023-04-24T04:38:55;15.30;;;9.40;;
6095;SDS011;25081;42.698;23.298;2023-04-24T04:41:05;13.27;;;6.10;;
6095;SDS011;25081;42.698;23.298;2023-04-24T04:43:16;9.07;;;6.30;;
6095;SDS011;25081;42.698;23.298;2023-04-24T04:45:27;8.13;;;5.10;;
6095;SDS011;25081;42.698;23.298;2023-04-24T04:47:37;14.10;;;5.63;;
6095;SDS011;25081;42.698;23.298;2023-04-24T04:49:48;6.37;;;5.37;;
6095;SDS011;25081;42.698;23.298;2023-04-24T04:51:59;7.70;;;5.30;;
6095;SDS011;25081;42.698;23.298;2023-04-24T04:54:10;6.70;;;4.53;;
6095;SDS011;25081;42.698;23.298;2023-04-24T04:56:20;10.23;;;5.10;;
6095;SDS011;25081;42.698;23.298;2023-04-24T04:58:31;9.67;;;5.63;;
6095;SDS011;25081;42.698;23.298;2023-04-24T05:00:41;6.70;;;5.30;;
6095;SDS011;25081;42.698;23.298;2023-04-24T05:02:52;7.70;;;5.50;;
6095;SDS011;25081;42.698;23.298;2023-04-24T05:05:03;7.90;;;5.73;;
6095;SDS011;25081;42.698;23.298;2023-04-24T05:07:14;10.33;;;5.90;;
6095;SDS011;25081;42.698;23.298;2023-04-24T05:09:25;8.33;;;5.53;;
6095;SDS011;25081;42.698;23.298;2023-04-24T05:11:35;8.37;;;6.20;;
6095;SDS011;25081;42.698;23.298;2023-04-24T05:13:46;13.53;;;5.50;;
6095;SDS011;25081;42.698;23.298;2023-04-24T05:15:57;9.17;;;5.83;;
6095;SDS011;25081;42.698;23.298;2023-04-24T05:18:07;7.67;;;5.43;;
6095;SDS011;25081;42.698;23.298;2023-04-24T05:20:18;6.90;;;5.73;;
6095;SDS011;25081;42.698;23.298;2023-04-24T05:22:28;8.23;;;6.53;;
6095;SDS011;25081;42.698;23.298;2023-04-24T05:24:39;7.77;;;6.20;;
6095;SDS011;25081;42.698;23.298;2023-04-24T05:26:50;6.50;;;5.20;;
6095;SDS011;25081;42.698;23.298;2023-04-24T05:29:00;8.10;;;5.20;;
6095;SDS011;25081;42.698;23.298;2023-04-24T05:31:11;11.50;;;5.87;;
6095;SDS011;25081;42.698;23.298;2023-04-24T05:33:22;10.70;;;6.73;;
6095;SDS011;25081;42.698;23.298;2023-04-24T05:35:32;10.43;;;6.50;;
6095;SDS011;25081;42.698;23.298;2023-04-24T05:37:43;8.80;;;6.23;;
6095;SDS011;25081;42.698;23.298;2023-04-24T05:39:53;11.73;;;6.60;;
6095;SDS011;25081;42.698;23.298;2023-04-24T05:42:05;10.67;;;5.70;;
6095;SDS011;25081;42.698;23.298;2023-04-24T05:44:15;7.10;;;5.53;;
6095;SDS011;25081;42.698;23.298;2023-04-24T05:46:26;10.50;;;5.70;;
6095;SDS011;25081;42.698;23.298;2023-04-24T05:48:36;11.40;;;5.87;;
6095;SDS011;25081;42.698;23.298;2023-04-24T05:50:47;8.27;;;6.83;;
6095;SDS011;25081;42.698;23.298;2023-04-24T05:52:57;8.60;;;6.13;;
6095;SDS011;25081;42.698;23.298;2023-04-24T05:55:08;8.57;;;6.07;;
6095;SDS011;25081;42.698;23.298;2023-04-24T05:57:19;11.83;;;6.63;;
6095;SDS011;25081;42.698;23.298;2023-04-24T05:59:30;7.57;;;6.77;;
6095;SDS011;25081;42.698;23.298;2023-04-24T06:01:40;11.03;;;6.90;;
6095;SDS011;25081;42.698;23.298;2023-04-24T06:03:51;10.27;;;6.27;;
6095;SDS011;25081;42.698;23.298;2023-04-24T06:06:02;7.53;;;6.07;;
6095;SDS011;25081;42.698;23.298;2023-04-24T06:08:13;7.70;;;5.90;;
6095;SDS011;25081;42.698;23.298;2023-04-24T06:10:24;13.47;;;8.20;;
6095;SDS011;25081;42.698;23.298;2023-04-24T06:12:34;7.93;;;6.53;;
6095;SDS011;25081;42.698;23.298;2023-04-24T06:14:45;9.47;;;6.93;;
6095;SDS011;25081;42.698;23.298;2023-04-24T06:16:56;10.77;;;6.40;;
6095;SDS011;25081;42.698;23.298;2023-04-24T06:19:06;7.70;;;5.73;;
6095;SDS011;25081;42.698;23.298;2023-04-24T06:21:17;9.47;;;6.43;;
6095;SDS011;25081;42.698;23.298;2023-04-24T06:23:27;7.53;;;6.37;;
6095;SDS011;25081;42.698;23.298;2023-04-24T06:25:38;8.30;;;6.00;;
6095;SDS011;25081;42.698;23.298;2023-04-24T06:27:49;6.13;;;5.47;;
6095;SDS011;25081;42.698;23.298;2023-04-24T06:30:00;7.30;;;6.00;;
6095;SDS011;25081;42.698;23.298;2023-04-24T06:32:10;7.80;;;6.50;;
6095;SDS011;25081;42.698;23.298;2023-04-24T06:34:21;9.83;;;6.10;;
6095;SDS011;25081;42.698;23.298;2023-04-24T06:36:31;12.53;;;6.90;;
6095;SDS011;25081;42.698;23.298;2023-04-24T06:38:43;8.30;;;6.40;;
6095;SDS011;25081;42.698;23.298;2023-04-24T06:40:54;6.67;;;6.00;;
6095;SDS011;25081;42.698;23.298;2023-04-24T06:43:04;9.47;;;6.10;;
6095;SDS011;25081;42.698;23.298;2023-04-24T06:45:15;10.03;;;6.90;;
6095;SDS011;25081;42.698;23.298;2023-04-24T06:47:26;6.80;;;6.10;;
6095;SDS011;25081;42.698;23.298;2023-04-24T06:49:37;7.53;;;6.30;;
6095;SDS011;25081;42.698;23.298;2023-04-24T06:51:47;9.70;;;6.27;;
6095;SDS011;25081;42.698;23.298;2023-04-24T06:53:58;8.23;;;6.43;;
6095;SDS011;25081;42.698;23.298;2023-04-24T06:56:09;8.07;;;6.87;;
6095;SDS011;25081;42.698;23.298;2023-04-24T06:58:19;31.73;;;7.90;;
6095;SDS011;25081;42.698;23.298;2023-04-24T07:00:30;11.07;;;7.27;;
6095;SDS011;25081;42.698;23.298;2023-04-24T07:02:41;12.10;;;6.60;;
6095;SDS011;25081;42.698;23.298;2023-04-24T07:04:51;9.87;;;7.60;;
6095;SDS011;25081;42.698;23.298;2023-04-24T07:07:02;9.30;;;7.47;;
6095;SDS011;25081;42.698;23.298;2023-04-24T07:09:12;12.43;;;7.20;;
6095;SDS011;25081;42.698;23.298;2023-04-24T07:11:23;16.27;;;7.53;;
6095;SDS011;25081;42.698;23.298;2023-04-24T07:13:34;15.63;;;7.70;;
6095;SDS011;25081;42.698;23.298;2023-04-24T07:15:44;11.30;;;7.03;;
6095;SDS011;25081;42.698;23.298;2023-04-24T07:17:55;9.60;;;7.77;;
6095;SDS011;25081;42.698;23.298;2023-04-24T07:20:07;9.10;;;7.37;;
6095;SDS011;25081;42.698;23.298;2023-04-24T07:22:18;9.20;;;7.70;;
6095;SDS011;25081;42.698;23.298;2023-04-24T07:24:28;9.20;;;7.60;;
6095;SDS011;25081;42.698;23.298;2023-04-24T07:26:39;10.40;;;8.30;;
6095;SDS011;25081;42.698;23.298;2023-04-24T07:28:50;9.83;;;7.80;;
6095;SDS011;25081;42.698;23.298;2023-04-24T07:31:00;16.97;;;8.17;;
6095;SDS011;25081;42.698;23.298;2023-04-24T07:33:11;12.73;;;7.50;;
6095;SDS011;25081;42.698;23.298;2023-04-24T07:35:21;9.67;;;8.47;;
6095;SDS011;25081;42.698;23.298;2023-04-24T07:37:32;9.90;;;7.90;;
6095;SDS011;25081;42.698;23.298;2023-04-24T07:39:42;9.67;;;8.10;;
6095;SDS011;25081;42.698;23.298;2023-04-24T07:41:53;11.43;;;8.27;;
6095;SDS011;25081;42.698;23.298;2023-04-24T07:44:04;10.73;;;7.83;;
6095;SDS011;25081;42.698;23.298;2023-04-24T07:46:15;10.13;;;6.90;;
6095;SDS011;25081;42.698;23.298;2023-04-24T07:48:25;10.07;;;7.43;;
6095;SDS011;25081;42.698;23.298;2023-04-24T07:50:36;10.20;;;6.67;;
6095;SDS011;25081;42.698;23.298;2023-04-24T07:52:46;8.23;;;5.80;;
6095;SDS011;25081;42.698;23.298;2023-04-24T07:54:57;12.67;;;6.20;;
6095;SDS011;25081;42.698;23.298;2023-04-24T07:57:08;5.33;;;4.83;;
6095;SDS011;25081;42.698;23.298;2023-04-24T07:59:18;8.30;;;5.93;;
6095;SDS011;25081;42.698;23.298;2023-04-24T08:01:29;8.30;;;4.60;;
6095;SDS011;25081;42.698;23.298;2023-04-24T08:03:39;7.50;;;5.80;;
6095;SDS011;25081;42.698;23.298;2023-04-24T08:05:50;7.33;;;5.70;;
6095;SDS011;25081;42.698;23.298;2023-04-24T08:08:01;6.17;;;5.40;;
6095;SDS011;25081;42.698;23.298;2023-04-24T08:10:11;9.07;;;5.90;;
6095;SDS011;25081;42.698;23.298;2023-04-24T08:12:22;6.97;;;5.80;;
6095;SDS011;25081;42.698;23.298;2023-04-24T08:14:33;8.07;;;5.83;;
6095;SDS011;25081;42.698;23.298;2023-04-24T08:16:43;8.70;;;5.77;;
6095;SDS011;25081;42.698;23.298;2023-04-24T08:18:54;9.63;;;6.00;;
6095;SDS011;25081;42.698;23.298;2023-04-24T08:21:05;6.83;;;6.13;;
6095;SDS011;25081;42.698;23.298;2023-04-24T08:23:15;6.93;;;6.03;;
6095;SDS011;25081;42.698;23.298;2023-04-24T08:25:26;9.13;;;7.13;;
6095;SDS011;25081;42.698;23.298;2023-04-24T08:27:36;9.73;;;6.40;;
6095;SDS011;25081;42.698;23.298;2023-04-24T08:29:47;9.87;;;6.00;;
6095;SDS011;25081;42.698;23.298;2023-04-24T08:31:58;10.50;;;6.53;;
6095;SDS011;25081;42.698;23.298;2023-04-24T08:34:09;9.53;;;7.13;;
6095;SDS011;25081;42.698;23.298;2023-04-24T08:36:19;7.23;;;6.53;;
6095;SDS011;25081;42.698;23.298;2023-04-24T08:38:30;8.07;;;6.10;;
6095;SDS011;25081;42.698;23.298;2023-04-24T08:40:40;13.13;;;6.50;;
6095;SDS011;25081;42.698;23.298;2023-04-24T08:42:51;8.50;;;5.87;;
6095;SDS011;25081;42.698;23.298;2023-04-24T08:45:01;8.50;;;6.27;;
6095;SDS011;25081;42.698;23.298;2023-04-24T08:47:12;8.23;;;6.27;;
6095;SDS011;25081;42.698;23.298;2023-04-24T08:49:23;7.57;;;6.33;;
6095;SDS011;25081;42.698;23.298;2023-04-24T08:51:33;6.87;;;5.33;;
6095;SDS011;25081;42.698;23.298;2023-04-24T08:53:44;12.90;;;8.33;;
6095;SDS011;25081;42.698;23.298;2023-04-24T08:55:55;7.17;;;6.10;;
6095;SDS011;25081;42.698;23.298;2023-04-24T08:58:05;12.40;;;6.40;;
6095;SDS011;25081;42.698;23.298;2023-04-24T09:00:17;8.47;;;5.80;;
6095;SDS011;25081;42.698;23.298;2023-04-24T09:02:28;7.33;;;6.63;;
6095;SDS011;25081;42.698;23.298;2023-04-24T09:04:38;8.07;;;6.67;;
6095;SDS011;25081;42.698;23.298;2023-04-24T09:06:49;8.40;;;6.33;;
6095;SDS011;25081;42.698;23.298;2023-04-24T09:09:00;9.03;;;6.47;;
6095;SDS011;25081;42.698;23.298;2023-04-24T09:11:11;7.30;;;6.33;;
6095;SDS011;25081;42.698;23.298;2023-04-24T09:13:21;8.00;;;6.00;;
6095;SDS011;25081;42.698;23.298;2023-04-24T09:15:32;6.47;;;5.87;;
6095;SDS011;25081;42.698;23.298;2023-04-24T09:17:42;9.93;;;6.90;;
6095;SDS011;25081;42.698;23.298;2023-04-24T09:19:53;7.40;;;6.37;;
6095;SDS011;25081;42.698;23.298;2023-04-24T09:22:05;6.53;;;5.80;;
6095;SDS011;25081;42.698;23.298;2023-04-24T09:24:16;9.03;;;6.00;;
6095;SDS011;25081;42.698;23.298;2023-04-24T09:26:26;8.70;;;6.17;;
6095;SDS011;25081;42.698;23.298;2023-04-24T09:28:40;9.37;;;7.17;;
6095;SDS011;25081;42.698;23.298;2023-04-24T09:30:55;6.07;;;5.47;;
6095;SDS011;25081;42.698;23.298;2023-04-24T09:33:15;8.10;;;6.67;;
6095;SDS011;25081;42.698;23.298;2023-04-24T09:35:26;8.83;;;5.80;;
6095;SDS011;25081;42.698;23.298;2023-04-24T09:37:37;7.43;;;5.77;;
6095;SDS011;25081;42.698;23.298;2023-04-24T09:39:51;11.23;;;5.73;;
6095;SDS011;25081;42.698;23.298;2023-04-24T09:42:07;6.10;;;5.30;;
6095;SDS011;25081;42.698;23.298;2023-04-24T09:44:18;9.10;;;5.57;;
6095;SDS011;25081;42.698;23.298;2023-04-24T09:46:32;6.27;;;4.80;;
6095;SDS011;25081;42.698;23.298;2023-04-24T09:48:42;7.50;;;5.80;;
6095;SDS011;25081;42.698;23.298;2023-04-24T09:50:53;7.60;;;4.90;;
6095;SDS011;25081;42.698;23.298;2023-04-24T09:53:03;5.73;;;4.73;;
6095;SDS011;25081;42.698;23.298;2023-04-24T09:55:16;11.80;;;6.17;;
6095;SDS011;25081;42.698;23.298;2023-04-24T09:57:26;7.23;;;5.93;;
6095;SDS011;25081;42.698;23.298;2023-04-24T09:59:38;7.00;;;4.37;;
6095;SDS011;25081;42.698;23.298;2023-04-24T10:01:49;5.93;;;4.97;;
6095;SDS011;25081;42.698;23.298;2023-04-24T10:03:59;7.30;;;6.07;;
6095;SDS011;25081;42.698;23.298;2023-04-24T10:06:11;7.63;;;5.90;;
6095;SDS011;25081;42.698;23.298;2023-04-24T10:08:20;7.30;;;5.60;;
6095;SDS011;25081;42.698;23.298;2023-04-24T10:10:31;7.27;;;5.67;;
6095;SDS011;25081;42.698;23.298;2023-04-24T10:12:42;6.30;;;5.40;;
6095;SDS011;25081;42.698;23.298;2023-04-24T10:14:52;7.07;;;5.70;;
6095;SDS011;25081;42.698;23.298;2023-04-24T10:17:03;7.27;;;5.00;;
6095;SDS011;25081;42.698;23.298;2023-04-24T10:19:13;5.90;;;5.30;;
6095;SDS011;25081;42.698;23.298;2023-04-24T10:21:24;7.43;;;5.17;;
6095;SDS011;25081;42.698;23.298;2023-04-24T10:23:34;9.50;;;6.30;;
6095;SDS011;25081;42.698;23.298;2023-04-24T10:25:45;5.60;;;4.67;;
6095;SDS011;25081;42.698;23.298;2023-04-24T10:27:56;7.70;;;5.40;;
6095;SDS011;25081;42.698;23.298;2023-04-24T10:30:08;7.23;;;5.53;;
6095;SDS011;25081;42.698;23.298;2023-04-24T10:32:20;6.13;;;5.13;;
6095;SDS011;25081;42.698;23.298;2023-04-24T10:34:30;9.07;;;5.60;;
6095;SDS011;25081;42.698;23.298;2023-04-24T10:36:41;7.40;;;4.90;;
6095;SDS011;25081;42.698;23.298;2023-04-24T10:38:51;9.80;;;5.17;;
6095;SDS011;25081;42.698;23.298;2023-04-24T10:41:08;9.50;;;6.07;;
6095;SDS011;25081;42.698;23.298;2023-04-24T10:43:19;5.93;;;5.33;;
6095;SDS011;25081;42.698;23.298;2023-04-24T10:45:29;10.20;;;6.13;;
6095;SDS011;25081;42.698;23.298;2023-04-24T10:47:40;8.10;;;5.53;;
6095;SDS011;25081;42.698;23.298;2023-04-24T10:49:51;7.70;;;4.57;;
6095;SDS011;25081;42.698;23.298;2023-04-24T10:52:02;8.13;;;5.47;;
6095;SDS011;25081;42.698;23.298;2023-04-24T10:54:25;8.17;;;4.97;;
6095;SDS011;25081;42.698;23.298;2023-04-24T10:56:35;10.57;;;5.70;;
6095;SDS011;25081;42.698;23.298;2023-04-24T10:58:50;8.13;;;5.33;;
6095;SDS011;25081;42.698;23.298;2023-04-24T11:00:59;6.03;;;5.20;;
6095;SDS011;25081;42.698;23.298;2023-04-24T11:03:22;7.93;;;5.93;;
6095;SDS011;25081;42.698;23.298;2023-04-24T11:05:52;8.73;;;5.63;;
6095;SDS011;25081;42.698;23.298;2023-04-24T11:08:12;10.13;;;5.97;;
6095;SDS011;25081;42.698;23.298;2023-04-24T11:10:31;9.80;;;5.93;;
6095;SDS011;25081;42.698;23.298;2023-04-24T11:12:42;6.37;;;5.30;;
6095;SDS011;25081;42.698;23.298;2023-04-24T11:15:02;7.03;;;4.93;;
6095;SDS011;25081;42.698;23.298;2023-04-24T11:17:26;5.37;;;4.83;;
6095;SDS011;25081;42.698;23.298;2023-04-24T11:19:33;7.07;;;5.97;;
6095;SDS011;25081;42.698;23.298;2023-04-24T11:21:44;8.13;;;5.60;;
6095;SDS011;25081;42.698;23.298;2023-04-24T11:23:55;10.70;;;5.50;;
6095;SDS011;25081;42.698;23.298;2023-04-24T11:26:11;10.13;;;5.50;;
6095;SDS011;25081;42.698;23.298;2023-04-24T11:28:22;10.53;;;5.70;;
6095;SDS011;25081;42.698;23.298;2023-04-24T11:30:33;7.17;;;5.33;;
6095;SDS011;25081;42.698;23.298;2023-04-24T11:32:46;6.07;;;4.67;;
6095;SDS011;25081;42.698;23.298;2023-04-24T11:34:55;5.90;;;4.60;;
6095;SDS011;25081;42.698;23.298;2023-04-24T11:37:05;7.50;;;5.63;;
6095;SDS011;25081;42.698;23.298;2023-04-24T11:39:15;5.70;;;5.10;;
6095;SDS011;25081;42.698;23.298;2023-04-24T11:41:29;7.27;;;5.50;;
6095;SDS011;25081;42.698;23.298;2023-04-24T11:43:39;7.17;;;5.60;;
6095;SDS011;25081;42.698;23.298;2023-04-24T11:45:50;6.90;;;5.03;;
6095;SDS011;25081;42.698;23.298;2023-04-24T11:48:01;6.40;;;5.40;;
6095;SDS011;25081;42.698;23.298;2023-04-24T11:50:13;7.50;;;5.80;;
6095;SDS011;25081;42.698;23.298;2023-04-24T11:52:23;7.77;;;5.53;;
6095;SDS011;25081;42.698;23.298;2023-04-24T11:54:33;5.97;;;5.27;;
6095;SDS011;25081;42.698;23.298;2023-04-24T11:56:45;6.40;;;5.10;;
6095;SDS011;25081;42.698;23.298;2023-04-24T11:58:56;5.40;;;4.40;;
6095;SDS011;25081;42.698;23.298;2023-04-24T12:01:06;3.83;;;3.17;;
6095;SDS011;25081;42.698;23.298;2023-04-24T12:03:17;5.73;;;4.33;;
6095;SDS011;25081;42.698;23.298;2023-04-24T12:05:28;5.03;;;4.20;;
6095;SDS011;25081;42.698;23.298;2023-04-24T12:07:41;5.00;;;4.40;;
6095;SDS011;25081;42.698;23.298;2023-04-24T12:09:55;7.57;;;4.33;;
6095;SDS011;25081;42.698;23.298;2023-04-24T12:12:06;5.30;;;4.50;;
6095;SDS011;25081;42.698;23.298;2023-04-24T12:14:16;7.20;;;4.90;;
6095;SDS011;25081;42.698;23.298;2023-04-24T12:16:27;5.20;;;4.10;;
6095;SDS011;25081;42.698;23.298;2023-04-24T12:18:42;6.50;;;4.50;;
6095;SDS011;25081;42.698;23.298;2023-04-24T12:20:53;6.90;;;4.43;;
6095;SDS011;25081;42.698;23.298;2023-04-24T12:23:03;6.47;;;5.10;;
6095;SDS011;25081;42.698;23.298;2023-04-24T12:25:14;7.10;;;5.07;;
6095;SDS011;25081;42.698;23.298;2023-04-24T12:27:24;6.30;;;4.80;;
6095;SDS011;25081;42.698;23.298;2023-04-24T12:29:35;7.03;;;4.60;;
6095;SDS011;25081;42.698;23.298;2023-04-24T12:31:46;4.80;;;4.10;;
6095;SDS011;25081;42.698;23.298;2023-04-24T12:33:56;5.53;;;4.30;;
6095;SDS011;25081;42.698;23.298;2023-04-24T12:36:11;11.53;;;4.70;;
6095;SDS011;25081;42.698;23.298;2023-04-24T12:38:22;6.33;;;4.60;;
6095;SDS011;25081;42.698;23.298;2023-04-24T12:40:33;6.50;;;4.70;;
6095;SDS011;25081;42.698;23.298;2023-04-24T12:42:44;5.30;;;4.80;;
6095;SDS011;25081;42.698;23.298;2023-04-24T12:44:56;4.60;;;3.97;;
6095;SDS011;25081;42.698;23.298;2023-04-24T12:47:08;6.67;;;4.93;;
6095;SDS011;25081;42.698;23.298;2023-04-24T12:49:18;6.03;;;5.33;;
6095;SDS011;25081;42.698;23.298;2023-04-24T12:51:29;3.50;;;3.20;;
6095;SDS011;25081;42.698;23.298;2023-04-24T12:53:39;6.13;;;5.53;;
6095;SDS011;25081;42.698;23.298;2023-04-24T12:55:50;7.93;;;5.10;;
6095;SDS011;25081;42.698;23.298;2023-04-24T12:58:01;5.30;;;4.40;;
6095;SDS011;25081;42.698;23.298;2023-04-24T13:00:12;5.57;;;4.97;;
6095;SDS011;25081;42.698;23.298;2023-04-24T13:02:24;8.30;;;4.53;;
6095;SDS011;25081;42.698;23.298;2023-04-24T13:04:34;7.20;;;5.30;;